createdAt,value
2023-01-23T00:00:20.636Z,50.20
2023-01-23T00:05:26.173Z,51.25
2023-01-23T00:10:29.916Z,44.08
2023-01-23T00:15:34.048Z,42.60
2023-01-23T00:20:40.171Z,42.53
2023-01-23T00:25:43.879Z,43.35
2023-01-23T00:30:47.686Z,43.47
2023-01-23T00:35:56.678Z,44.80
2023-01-23T00:41:00.431Z,46.45
2023-01-23T00:46:04.278Z,41.65
2023-01-23T00:51:10.932Z,49.08
2023-01-23T00:56:14.728Z,45.08
2023-01-23T01:01:22.651Z,47.88
2023-01-23T01:11:33.788Z,34.10
2023-01-23T01:16:37.713Z,45.10
2023-01-23T01:21:43.577Z,45.25
2023-01-23T01:26:48.425Z,45.05
2023-01-23T01:31:52.280Z,40.30
2023-01-23T01:36:57.589Z,46.05
2023-01-23T01:42:01.358Z,46.40
2023-01-23T01:47:05.184Z,47.25
2023-01-23T01:52:13.043Z,41.47
2023-01-23T01:57:21.835Z,44.53
2023-01-23T02:02:36.278Z,48.83
2023-01-23T02:07:45.519Z,47.20
2023-01-23T02:12:51.456Z,41.47
2023-01-23T02:17:55.945Z,43.33
2023-01-23T02:23:10.787Z,41.13
2023-01-23T02:28:18.096Z,44.38
2023-01-23T02:33:45.331Z,46.70
2023-01-23T02:39:05.197Z,40.80
2023-01-23T02:44:17.368Z,45.38
2023-01-23T02:49:23.017Z,47.70
2023-01-23T02:54:27.392Z,45.20
2023-01-23T02:59:50.687Z,45.12
2023-01-23T03:04:55.310Z,43.05
2023-01-23T03:09:59.013Z,49.30
2023-01-23T03:15:06.100Z,44.63
2023-01-23T03:20:12.576Z,52.50
2023-01-23T03:25:16.974Z,46.42
2023-01-23T03:30:22.642Z,50.08
2023-01-23T03:35:28.010Z,51.42
2023-01-23T03:40:49.775Z,46.97
2023-01-23T03:45:57.686Z,50.33
2023-01-23T03:51:02.127Z,51.35
2023-01-23T03:56:09.449Z,49.97
2023-01-23T04:01:14.959Z,55.30
2023-01-23T04:06:19.633Z,48.42
2023-01-23T04:11:24.149Z,51.63
2023-01-23T04:16:29.431Z,58.67
2023-01-23T04:21:35.320Z,53.63
2023-01-23T04:26:39.232Z,60.38
2023-01-23T04:31:45.363Z,57.40
2023-01-23T04:36:49.534Z,46.25
2023-01-23T04:41:53.641Z,52.95
2023-01-23T04:47:01.225Z,48.55
2023-01-23T04:52:05.692Z,53.22
2023-01-23T04:57:10.651Z,53.05
2023-01-23T05:02:15.811Z,57.17
2023-01-23T05:07:19.847Z,54.00
2023-01-23T05:12:25.689Z,59.03
2023-01-23T05:17:31.059Z,52.50
2023-01-23T05:22:35.528Z,62.78
2023-01-23T05:27:39.302Z,63.10
2023-01-23T05:32:44.489Z,57.80
2023-01-23T05:37:51.630Z,56.88
2023-01-23T05:42:56.789Z,67.60
2023-01-23T05:48:03.568Z,53.03
2023-01-23T05:53:07.873Z,59.83
2023-01-23T05:58:14.475Z,70.47
2023-01-23T06:03:22.661Z,57.72
2023-01-23T06:08:27.450Z,61.75
2023-01-23T06:13:31.289Z,59.47
2023-01-23T06:18:36.686Z,61.25
2023-01-23T06:23:40.705Z,60.47
2023-01-23T06:28:46.113Z,60.65
2023-01-23T06:33:52.779Z,57.67
2023-01-23T06:38:57.737Z,60.22
2023-01-23T06:44:02.089Z,54.55
2023-01-23T06:49:07.736Z,61.53
2023-01-23T06:54:12.155Z,55.90
2023-01-23T06:59:16.655Z,69.90
2023-01-23T07:04:21.912Z,59.75
2023-01-23T07:09:26.532Z,61.83
2023-01-23T07:14:31.166Z,60.20
2023-01-23T07:19:36.526Z,58.33
2023-01-23T07:24:40.682Z,57.60
2023-01-23T07:29:44.855Z,62.75
2023-01-23T07:34:49.906Z,64.68
2023-01-23T07:39:53.635Z,57.05
2023-01-23T07:44:57.327Z,55.97
2023-01-23T07:50:02.412Z,66.25
2023-01-23T07:55:07.460Z,60.03
2023-01-23T08:00:12.212Z,58.58
2023-01-23T08:05:17.457Z,57.30
2023-01-23T08:10:21.643Z,65.25
2023-01-23T08:15:25.759Z,59.92
2023-01-23T08:20:30.903Z,59.55
2023-01-23T08:25:35.003Z,51.88
2023-01-23T08:30:38.877Z,53.75
2023-01-23T08:35:51.055Z,63.13
2023-01-23T08:40:56.224Z,54.47
2023-01-23T08:46:01.021Z,57.88
2023-01-23T08:51:09.460Z,46.65
2023-01-23T08:56:17.001Z,51.67
2023-01-23T09:01:22.489Z,55.47
2023-01-23T09:06:27.548Z,54.67
2023-01-23T09:11:31.295Z,58.28
2023-01-23T09:16:35.062Z,52.15
2023-01-23T09:21:40.169Z,45.17
2023-01-23T09:26:43.906Z,56.40
2023-01-23T09:31:47.775Z,55.92
2023-01-23T09:36:53.496Z,52.67
2023-01-23T09:41:57.244Z,54.08
2023-01-23T09:47:07.152Z,51.97
2023-01-23T09:52:17.438Z,59.17
2023-01-23T09:57:25.778Z,53.15
2023-01-23T10:02:30.158Z,54.40
2023-01-23T10:07:46.673Z,43.87
2023-01-23T10:13:03.783Z,49.38
2023-01-23T10:18:20.393Z,48.80
2023-01-23T10:23:41.097Z,44.70
2023-01-23T10:28:45.059Z,48.13
2023-01-23T10:33:55.608Z,39.17
2023-01-23T10:39:05.269Z,41.78
2023-01-23T10:44:15.959Z,41.37
2023-01-23T10:49:30.420Z,39.15
2023-01-23T10:54:47.041Z,43.03
2023-01-23T10:59:56.792Z,37.60
2023-01-23T11:05:01.249Z,34.90
2023-01-23T11:10:21.661Z,37.17
2023-01-23T11:15:27.643Z,39.63
2023-01-23T11:20:34.303Z,41.03
2023-01-23T11:25:40.900Z,38.17
2023-01-23T11:30:48.765Z,38.75
2023-01-23T11:36:02.348Z,35.75
2023-01-23T11:41:12.087Z,32.38
2023-01-23T11:46:30.873Z,40.28
2023-01-23T11:51:39.062Z,34.10
2023-01-23T12:02:30.543Z,36.97
2023-01-23T12:07:41.938Z,37.22
2023-01-23T12:13:02.593Z,40.05
2023-01-23T12:18:21.665Z,34.75
2023-01-23T12:23:41.930Z,38.22
2023-01-23T12:29:28.669Z,35.05
2023-01-23T12:34:46.867Z,38.55
2023-01-23T12:40:08.435Z,30.92
2023-01-23T12:45:21.690Z,33.08
2023-01-23T12:50:36.028Z,30.65
2023-01-23T12:55:44.354Z,31.42
2023-01-23T13:06:14.931Z,32.08
2023-01-23T13:11:41.627Z,33.13
2023-01-23T13:16:49.566Z,29.90
2023-01-23T13:22:19.023Z,31.10
2023-01-23T13:27:41.583Z,33.42
2023-01-23T13:32:46.782Z,31.95
2023-01-23T13:37:52.166Z,34.58
2023-01-23T13:42:55.890Z,31.98
2023-01-23T14:21:42.646Z,35.65
2023-01-23T14:26:50.748Z,36.35
2023-01-23T14:37:04.275Z,36.72
2023-01-23T14:42:16.517Z,33.40
2023-01-23T14:47:32.742Z,38.20
2023-01-23T14:52:39.141Z,40.00
2023-01-23T14:57:42.955Z,40.65
2023-01-23T15:02:51.006Z,39.42
2023-01-23T15:13:03.482Z,33.83
2023-01-23T15:18:22.565Z,37.50
2023-01-23T15:23:31.473Z,34.72
2023-01-23T15:28:40.153Z,40.25
2023-01-23T15:33:45.254Z,36.58
2023-01-23T15:38:50.627Z,36.83
2023-01-23T15:43:54.325Z,36.45
2023-01-23T15:48:58.072Z,38.97
2023-01-23T15:54:04.127Z,33.90
2023-01-23T15:59:14.095Z,36.85
2023-01-23T16:04:18.464Z,32.50
2023-01-23T16:09:32.480Z,33.80
2023-01-23T16:14:36.182Z,35.92
2023-01-23T16:19:40.041Z,35.40
2023-01-23T16:24:45.200Z,36.00
2023-01-23T16:29:50.192Z,31.15
2023-01-23T16:34:53.928Z,36.70
2023-01-23T16:39:59.015Z,31.10
2023-01-23T16:45:02.880Z,29.52
2023-01-23T16:50:07.637Z,32.47
2023-01-23T16:55:22.670Z,30.45
2023-01-23T17:00:34.696Z,28.85
2023-01-23T17:05:38.871Z,28.08
2023-01-23T17:10:46.574Z,29.27
2023-01-23T17:15:53.958Z,32.38
2023-01-23T17:20:58.237Z,25.57
2023-01-23T17:26:03.496Z,28.12
2023-01-23T17:31:07.884Z,27.85
2023-01-23T17:36:11.701Z,29.67
2023-01-23T17:41:17.986Z,25.83
2023-01-23T17:46:26.316Z,29.60
2023-01-23T17:51:30.089Z,29.50
2023-01-23T17:56:35.164Z,30.17
2023-01-23T18:01:39.770Z,28.33
2023-01-23T18:06:43.825Z,27.37
2023-01-23T18:11:52.433Z,26.62
2023-01-23T18:16:56.918Z,29.98
2023-01-23T18:22:01.257Z,31.25
2023-01-23T18:27:17.731Z,29.95
2023-01-23T18:32:40.816Z,31.60
2023-01-23T18:37:56.056Z,29.50
2023-01-23T18:43:12.287Z,33.70
2023-01-23T18:48:25.115Z,31.25
2023-01-23T18:53:42.010Z,29.33
2023-01-23T18:59:09.971Z,31.92
2023-01-23T19:04:16.627Z,34.38
2023-01-23T19:09:22.412Z,32.58
2023-01-23T19:14:45.504Z,35.83
2023-01-23T19:19:56.789Z,31.42
2023-01-23T19:25:01.339Z,33.38
2023-01-23T19:30:07.953Z,35.90
2023-01-23T19:35:14.267Z,30.17
2023-01-23T19:40:18.909Z,30.45
2023-01-23T19:45:24.201Z,34.00
2023-01-23T19:50:27.958Z,32.05
2023-01-23T19:55:34.087Z,30.58
2023-01-23T20:00:39.476Z,29.02
2023-01-23T20:05:43.259Z,33.53
2023-01-23T20:10:46.977Z,31.83
2023-01-23T20:15:52.094Z,29.77
2023-01-23T20:20:59.837Z,30.90
2023-01-23T20:26:03.942Z,31.23
2023-01-23T20:31:11.718Z,34.45
2023-01-23T20:36:16.110Z,30.95
2023-01-23T20:41:21.826Z,32.75
2023-01-23T20:46:27.270Z,30.90
2023-01-23T20:51:31.433Z,31.33
2023-01-23T20:56:35.620Z,33.75
2023-01-23T21:02:00.144Z,30.58
2023-01-23T21:07:04.720Z,34.25
2023-01-23T21:12:08.911Z,36.05
2023-01-23T21:17:14.334Z,31.05
2023-01-23T21:22:18.221Z,33.60
2023-01-23T21:27:24.465Z,32.95
2023-01-23T21:32:30.306Z,32.50
2023-01-23T21:37:34.214Z,37.17
2023-01-23T21:42:38.028Z,33.90
2023-01-23T21:47:43.150Z,36.03
2023-01-23T21:52:46.883Z,35.15
2023-01-23T21:57:51.022Z,35.40
2023-01-23T22:02:56.155Z,33.08
2023-01-23T22:07:59.923Z,39.20
2023-01-23T22:13:03.843Z,33.25
2023-01-23T22:18:08.941Z,37.30
2023-01-23T22:23:12.630Z,36.10
2023-01-23T22:28:16.447Z,38.95
2023-01-23T22:33:22.516Z,36.60
2023-01-23T22:38:27.625Z,36.90
2023-01-23T22:43:31.752Z,38.00
2023-01-23T22:48:38.769Z,40.72
2023-01-23T22:53:42.502Z,38.80
2023-01-23T22:58:46.974Z,42.95
2023-01-23T23:03:52.169Z,38.28
2023-01-23T23:08:56.496Z,39.03
2023-01-23T23:14:00.313Z,39.22
2023-01-23T23:19:05.828Z,38.10
2023-01-23T23:24:13.709Z,39.35
2023-01-23T23:34:22.385Z,39.08
2023-01-23T23:39:26.577Z,42.05
2023-01-23T23:44:30.301Z,39.97
2023-01-23T23:49:35.381Z,37.88
2023-01-23T23:54:39.098Z,39.33
2023-01-23T23:59:42.827Z,38.47
